createdAt,value
2022-07-30T00:00:07.301Z,72
2022-07-30T00:15:05.062Z,72
2022-07-30T00:30:07.413Z,71
2022-07-30T00:45:06.091Z,71
2022-07-30T01:00:08.847Z,72
2022-07-30T01:15:04.205Z,72
2022-07-30T01:30:06.490Z,72
2022-07-30T01:45:04.946Z,72
2022-07-30T02:00:05.202Z,71
2022-07-30T02:15:02.787Z,71
2022-07-30T02:30:09.030Z,71
2022-07-30T02:45:03.528Z,71
2022-07-30T03:00:10.518Z,71
2022-07-30T03:15:05.583Z,71
2022-07-30T03:30:05.523Z,71
2022-07-30T03:45:04.284Z,71
2022-07-30T04:00:07.752Z,71
2022-07-30T04:16:42.063Z,71
2022-07-30T04:30:07.170Z,71
2022-07-30T04:45:03.718Z,71
2022-07-30T05:00:07.213Z,71
2022-07-30T05:15:04.009Z,71
2022-07-30T05:30:10.970Z,71
2022-07-30T05:45:03.516Z,71
2022-07-30T06:00:06.712Z,71
2022-07-30T06:15:05.305Z,71
2022-07-30T06:30:05.976Z,71
2022-07-30T06:45:03.604Z,71
2022-07-30T07:00:05.496Z,71
2022-07-30T07:15:03.972Z,71
2022-07-30T07:30:09.366Z,71
2022-07-30T07:45:03.763Z,70
2022-07-30T08:00:07.350Z,70
2022-07-30T08:15:03.498Z,70
2022-07-30T08:30:06.510Z,70
2022-07-30T08:45:04.196Z,70
2022-07-30T09:00:05.771Z,69
2022-07-30T09:15:03.179Z,69
2022-07-30T09:30:07.344Z,68
2022-07-30T09:45:03.579Z,68
2022-07-30T10:00:08.834Z,67
2022-07-30T10:15:07.228Z,66
2022-07-30T10:30:13.736Z,66
2022-07-30T10:45:05.238Z,65
2022-07-30T11:00:09.242Z,65
2022-07-30T11:15:17.841Z,64
2022-07-30T11:30:08.025Z,64
2022-07-30T11:45:04.267Z,63
2022-07-30T12:00:07.414Z,63
2022-07-30T12:15:03.390Z,63
2022-07-30T12:30:08.924Z,63
2022-07-30T12:45:03.829Z,63
2022-07-30T13:00:09.312Z,62
2022-07-30T13:15:04.539Z,61
2022-07-30T13:30:06.903Z,60
2022-07-30T13:45:03.109Z,60
2022-07-30T14:00:05.563Z,59
2022-07-30T14:15:02.492Z,59
2022-07-30T14:30:06.689Z,59
2022-07-30T14:45:03.419Z,58
2022-07-30T15:00:08.065Z,58
2022-07-30T15:15:07.747Z,58
2022-07-30T15:30:05.776Z,57
2022-07-30T15:45:18.176Z,57
2022-07-30T16:00:05.535Z,57
2022-07-30T16:15:02.823Z,57
2022-07-30T16:30:06.726Z,56
2022-07-30T16:45:06.738Z,56
2022-07-30T17:00:06.075Z,57
2022-07-30T17:15:03.591Z,57
2022-07-30T17:30:05.282Z,57
2022-07-30T17:45:03.551Z,57
2022-07-30T18:00:07.186Z,58
2022-07-30T18:15:04.681Z,58
2022-07-30T18:30:04.807Z,59
2022-07-30T18:45:04.720Z,59
2022-07-30T19:00:07.159Z,60
2022-07-30T19:15:03.657Z,60
2022-07-30T19:30:04.605Z,61
2022-07-30T19:45:11.146Z,61
2022-07-30T20:00:07.021Z,61
2022-07-30T20:15:13.961Z,62
2022-07-30T20:30:05.992Z,62
2022-07-30T20:45:04.552Z,62
2022-07-30T21:00:08.390Z,63
2022-07-30T21:15:23.312Z,63
2022-07-30T21:30:05.036Z,63
2022-07-30T21:45:03.922Z,63
2022-07-30T22:00:10.780Z,63
2022-07-30T22:15:05.430Z,63
2022-07-30T22:30:06.035Z,63
2022-07-30T22:45:03.501Z,63
2022-07-30T23:00:11.619Z,63
2022-07-30T23:15:03.065Z,63
2022-07-30T23:30:04.347Z,63
2022-07-30T23:45:03.460Z,63
